Turners Station, Kentucky
Current Conditions -  °F | °C
As of 5:53 AM on Friday 31 Oct 2014 (Local Time) from KFFT Reporting Station
Haze Haze  
Wind Chill: 43°   Ceiling: 4700
Heat Index: 43°   Visibility: 6mi
Dew Point: 40°   Wind: 0mph
Humidity: 89%   Direction: NA
Pressure: 29.99"   Gusts: NA
Location:  38.56°N, 85.17°W
Report Text: KFFT 310953Z AUTO 00000KT 6SM BR BKN047 OVC060 06/04 A2999 RMK AO2 RAE11B28E48 SLP156 P0001 T00610044
Loading
Personal Weather Stations






























Interactive Weather Map
Tropical Storm Tracking
New forecast layout! Learn more

10-Day Weather Forecast

Advertisements
Track Severe Weather on mobile